PUA1497 SULS-SACO
Flight info
| Callsign | PUA1497 |
|---|---|
| Flight time | 2h 39m |
| Altitude | 24000 |
| Route | LDS DCT NIMBO B555 PAR W6 GENAS |
| Aircraft | P46T/L-SBDGRWY/SB1 |
Departure
| Time | 2026-05-08 12:57 |
|---|---|
| Airport | Capitan Corbeta CA Curbelo International Airport (SULS) |
Arrival
| Time | 2026-05-08 15:36 |
|---|---|
| Airport | Ingeniero Aeronáutico Ambrosio L.V. Taravella International Airport (SACO) |
| Time | Latitude | Longitude | Altitude | Speed | Heading |
|---|---|---|---|---|---|
| 2026-05-08 12:41 | -34.86320 | -55.09730 | 98 ft | 0 kts | 160° |
| 2026-05-08 12:50 | -34.86341 | -55.09724 | 98 ft | 7 kts | 172° |
| 2026-05-08 12:50 | -34.86372 | -55.09708 | 98 ft | 2 kts | 117° |
| 2026-05-08 12:50 | -34.86371 | -55.09710 | 98 ft | 2 kts | 117° |
| 2026-05-08 12:50 | -34.86364 | -55.09728 | 98 ft | 2 kts | 91° |
| 2026-05-08 12:51 | -34.86366 | -55.09734 | 98 ft | 0 kts | 51° |
| 2026-05-08 12:51 | -34.86330 | -55.09624 | 98 ft | 16 kts | 112° |
| 2026-05-08 12:51 | -34.86392 | -55.09494 | 98 ft | 16 kts | 109° |
| 2026-05-08 12:52 | -34.86399 | -55.09464 | 98 ft | 0 kts | 107° |
| 2026-05-08 12:55 | -34.86408 | -55.09438 | 98 ft | 10 kts | 117° |
| 2026-05-08 12:55 | -34.86426 | -55.09353 | 98 ft | 7 kts | 1° |
| 2026-05-08 12:56 | -34.86380 | -55.09366 | 98 ft | 0 kts | 359° |
| 2026-05-08 12:56 | -34.86339 | -55.09365 | 98 ft | 25 kts | 1° |
| 2026-05-08 12:56 | -34.85983 | -55.09383 | 98 ft | 74 kts | 358° |
| 2026-05-08 12:56 | -34.85359 | -55.09408 | 216 ft | 98 kts | 359° |
| 2026-05-08 12:57 | -34.84640 | -55.09409 | 469 ft | 115 kts | 354° |
| 2026-05-08 12:57 | -34.83770 | -55.09424 | 739 ft | 124 kts | 343° |
| 2026-05-08 12:57 | -34.83259 | -55.09804 | 1724 ft | 67 kts | 297° |
| 2026-05-08 12:57 | -34.82939 | -55.10531 | 1613 ft | 114 kts | 288° |
| 2026-05-08 12:58 | -34.82811 | -55.11163 | 1889 ft | 116 kts | 286° |
| 2026-05-08 12:58 | -34.82582 | -55.12382 | 2484 ft | 119 kts | 283° |
| 2026-05-08 12:58 | -34.82376 | -55.13401 | 2827 ft | 125 kts | 283° |
| 2026-05-08 12:58 | -34.82156 | -55.14422 | 3275 ft | 125 kts | 284° |
| 2026-05-08 12:59 | -34.81929 | -55.15450 | 3724 ft | 126 kts | 283° |
| 2026-05-08 12:59 | -34.81775 | -55.16148 | 4012 ft | 127 kts | 284° |
| 2026-05-08 12:59 | -34.81545 | -55.17181 | 4410 ft | 129 kts | 283° |
| 2026-05-08 12:59 | -34.81307 | -55.18244 | 4772 ft | 131 kts | 283° |
| 2026-05-08 13:00 | -34.81064 | -55.19332 | 5116 ft | 134 kts | 283° |
| 2026-05-08 13:00 | -34.80819 | -55.20432 | 5504 ft | 135 kts | 283° |
| 2026-05-08 13:00 | -34.80572 | -55.21547 | 5873 ft | 138 kts | 282° |
| 2026-05-08 13:00 | -34.80329 | -55.22682 | 6228 ft | 139 kts | 282° |
| 2026-05-08 13:01 | -34.80076 | -55.23823 | 6578 ft | 140 kts | 282° |
| 2026-05-08 13:01 | -34.79820 | -55.24974 | 6934 ft | 142 kts | 282° |
| 2026-05-08 13:01 | -34.79563 | -55.26131 | 7303 ft | 142 kts | 281° |
| 2026-05-08 13:01 | -34.79302 | -55.27299 | 7665 ft | 144 kts | 281° |
| 2026-05-08 13:02 | -34.79039 | -55.28481 | 8024 ft | 146 kts | 281° |
| 2026-05-08 13:02 | -34.78772 | -55.29676 | 8381 ft | 147 kts | 281° |
| 2026-05-08 13:02 | -34.78501 | -55.30879 | 8737 ft | 148 kts | 281° |
| 2026-05-08 13:02 | -34.78230 | -55.32091 | 9104 ft | 149 kts | 281° |
| 2026-05-08 13:03 | -34.77962 | -55.33294 | 9461 ft | 150 kts | 281° |
| 2026-05-08 13:03 | -34.77687 | -55.34520 | 9789 ft | 151 kts | 281° |
| 2026-05-08 13:03 | -34.77409 | -55.35757 | 10110 ft | 152 kts | 281° |
| 2026-05-08 13:03 | -34.77129 | -55.37005 | 10450 ft | 153 kts | 281° |
| 2026-05-08 13:04 | -34.76847 | -55.38260 | 10814 ft | 154 kts | 281° |
| 2026-05-08 13:04 | -34.76564 | -55.39525 | 11131 ft | 157 kts | 282° |
| 2026-05-08 13:04 | -34.76274 | -55.40813 | 11453 ft | 158 kts | 282° |
| 2026-05-08 13:04 | -34.75983 | -55.42104 | 11771 ft | 159 kts | 282° |
| 2026-05-08 13:05 | -34.75690 | -55.43409 | 12085 ft | 160 kts | 282° |
| 2026-05-08 13:05 | -34.75395 | -55.44724 | 12399 ft | 162 kts | 282° |
| 2026-05-08 13:05 | -34.75097 | -55.46048 | 12695 ft | 163 kts | 282° |
| 2026-05-08 13:05 | -34.74800 | -55.47381 | 12997 ft | 164 kts | 282° |
| 2026-05-08 13:06 | -34.74497 | -55.48724 | 13308 ft | 165 kts | 283° |
| 2026-05-08 13:06 | -34.74190 | -55.50077 | 13587 ft | 166 kts | 283° |
| 2026-05-08 13:06 | -34.73888 | -55.51419 | 13877 ft | 167 kts | 284° |
| 2026-05-08 13:06 | -34.73578 | -55.52783 | 14146 ft | 167 kts | 283° |
| 2026-05-08 13:07 | -34.73269 | -55.54148 | 14427 ft | 168 kts | 284° |
| 2026-05-08 13:07 | -34.72959 | -55.55515 | 14701 ft | 168 kts | 284° |
| 2026-05-08 13:07 | -34.72649 | -55.56889 | 14960 ft | 169 kts | 284° |
| 2026-05-08 13:07 | -34.72338 | -55.58265 | 15229 ft | 169 kts | 285° |
| 2026-05-08 13:08 | -34.72024 | -55.59646 | 15508 ft | 170 kts | 285° |
| 2026-05-08 13:08 | -34.71710 | -55.61035 | 15783 ft | 170 kts | 285° |
| 2026-05-08 13:08 | -34.71394 | -55.62424 | 16045 ft | 171 kts | 285° |
| 2026-05-08 13:08 | -34.71077 | -55.63824 | 16304 ft | 172 kts | 285° |
| 2026-05-08 13:09 | -34.70760 | -55.65224 | 16590 ft | 172 kts | 285° |
| 2026-05-08 13:09 | -34.70443 | -55.66621 | 16858 ft | 172 kts | 285° |
| 2026-05-08 13:09 | -34.70129 | -55.68003 | 17122 ft | 172 kts | 286° |
| 2026-05-08 13:09 | -34.69812 | -55.69400 | 17393 ft | 172 kts | 286° |
| 2026-05-08 13:10 | -34.69493 | -55.70800 | 17662 ft | 172 kts | 286° |
| 2026-05-08 13:10 | -34.69173 | -55.72204 | 17917 ft | 172 kts | 286° |
| 2026-05-08 13:10 | -34.68857 | -55.73594 | 18248 ft | 164 kts | 286° |
| 2026-05-08 13:10 | -34.68562 | -55.74894 | 18647 ft | 158 kts | 286° |
| 2026-05-08 13:11 | -34.68265 | -55.76193 | 18918 ft | 160 kts | 287° |
| 2026-05-08 13:11 | -34.67972 | -55.77474 | 19199 ft | 160 kts | 287° |
| 2026-05-08 13:11 | -34.67670 | -55.78792 | 19474 ft | 160 kts | 286° |
| 2026-05-08 13:11 | -34.67375 | -55.80087 | 19751 ft | 161 kts | 286° |
| 2026-05-08 13:12 | -34.67077 | -55.81397 | 20032 ft | 161 kts | 286° |
| 2026-05-08 13:12 | -34.66777 | -55.82712 | 20304 ft | 162 kts | 286° |
| 2026-05-08 13:12 | -34.66475 | -55.84029 | 20579 ft | 162 kts | 286° |
| 2026-05-08 13:12 | -34.66172 | -55.85354 | 20857 ft | 163 kts | 286° |
| 2026-05-08 13:13 | -34.65868 | -55.86681 | 21139 ft | 163 kts | 286° |
| 2026-05-08 13:13 | -34.65564 | -55.88010 | 21412 ft | 164 kts | 286° |
| 2026-05-08 13:13 | -34.65259 | -55.89341 | 21683 ft | 164 kts | 286° |
| 2026-05-08 13:13 | -34.64953 | -55.90677 | 21957 ft | 165 kts | 286° |
| 2026-05-08 13:14 | -34.64645 | -55.92021 | 22223 ft | 165 kts | 286° |
| 2026-05-08 13:14 | -34.64341 | -55.93344 | 22494 ft | 166 kts | 286° |
| 2026-05-08 13:14 | -34.64026 | -55.94717 | 22766 ft | 166 kts | 286° |
| 2026-05-08 13:14 | -34.63715 | -55.96067 | 23025 ft | 166 kts | 286° |
| 2026-05-08 13:15 | -34.63407 | -55.97407 | 23263 ft | 167 kts | 286° |
| 2026-05-08 13:15 | -34.63090 | -55.98783 | 23485 ft | 168 kts | 286° |
| 2026-05-08 13:15 | -34.62778 | -56.00141 | 23613 ft | 173 kts | 286° |
| 2026-05-08 13:15 | -34.62444 | -56.01592 | 23622 ft | 183 kts | 286° |
| 2026-05-08 13:16 | -34.62095 | -56.03109 | 23624 ft | 191 kts | 286° |
| 2026-05-08 13:16 | -34.61731 | -56.04686 | 23627 ft | 197 kts | 286° |
| 2026-05-08 13:16 | -34.61358 | -56.06305 | 23626 ft | 201 kts | 286° |
| 2026-05-08 13:16 | -34.60977 | -56.07957 | 23626 ft | 205 kts | 286° |
| 2026-05-08 13:17 | -34.60591 | -56.09629 | 23642 ft | 207 kts | 286° |
| 2026-05-08 13:17 | -34.60197 | -56.11332 | 23642 ft | 209 kts | 286° |
| 2026-05-08 13:17 | -34.59802 | -56.13041 | 23645 ft | 211 kts | 286° |
| 2026-05-08 13:17 | -34.59405 | -56.14756 | 23644 ft | 212 kts | 286° |
| 2026-05-08 13:18 | -34.59004 | -56.16484 | 23646 ft | 213 kts | 286° |
| 2026-05-08 13:18 | -34.58602 | -56.18217 | 23642 ft | 213 kts | 286° |
| 2026-05-08 13:18 | -34.58200 | -56.19952 | 23646 ft | 214 kts | 286° |
| 2026-05-08 13:18 | -34.57795 | -56.21686 | 23650 ft | 213 kts | 286° |
| 2026-05-08 13:19 | -34.57392 | -56.23419 | 23648 ft | 213 kts | 286° |
| 2026-05-08 13:19 | -34.56995 | -56.25127 | 23647 ft | 213 kts | 286° |
| 2026-05-08 13:19 | -34.56594 | -56.26853 | 23643 ft | 213 kts | 286° |
| 2026-05-08 13:19 | -34.56190 | -56.28587 | 23646 ft | 213 kts | 286° |
| 2026-05-08 13:20 | -34.55785 | -56.30317 | 23651 ft | 213 kts | 286° |
| 2026-05-08 13:20 | -34.55384 | -56.32048 | 23653 ft | 213 kts | 285° |
| 2026-05-08 13:20 | -34.54980 | -56.33781 | 23652 ft | 213 kts | 286° |
| 2026-05-08 13:20 | -34.54573 | -56.35514 | 23658 ft | 213 kts | 286° |
| 2026-05-08 13:21 | -34.54168 | -56.37246 | 23661 ft | 214 kts | 285° |
| 2026-05-08 13:21 | -34.53763 | -56.38981 | 23661 ft | 214 kts | 285° |
| 2026-05-08 13:21 | -34.53355 | -56.40717 | 23654 ft | 214 kts | 286° |
| 2026-05-08 13:21 | -34.52941 | -56.42446 | 23664 ft | 213 kts | 286° |
| 2026-05-08 13:22 | -34.52540 | -56.44155 | 23667 ft | 213 kts | 286° |
| 2026-05-08 13:22 | -34.52137 | -56.45887 | 23669 ft | 213 kts | 286° |
| 2026-05-08 13:22 | -34.51731 | -56.47615 | 23658 ft | 213 kts | 287° |
| 2026-05-08 13:22 | -34.51144 | -56.49267 | 23676 ft | 214 kts | 297° |
| 2026-05-08 13:23 | -34.50297 | -56.50769 | 23672 ft | 218 kts | 306° |
| 2026-05-08 13:23 | -34.49317 | -56.52170 | 23681 ft | 218 kts | 306° |
| 2026-05-08 13:23 | -34.48352 | -56.53584 | 23681 ft | 218 kts | 306° |
| 2026-05-08 13:23 | -34.47386 | -56.54995 | 23688 ft | 217 kts | 306° |
| 2026-05-08 13:24 | -34.46416 | -56.56400 | 23687 ft | 217 kts | 306° |
| 2026-05-08 13:24 | -34.45447 | -56.57810 | 23693 ft | 217 kts | 306° |
| 2026-05-08 13:24 | -34.44477 | -56.59216 | 23691 ft | 217 kts | 306° |
| 2026-05-08 13:24 | -34.43507 | -56.60620 | 23694 ft | 217 kts | 306° |
| 2026-05-08 13:25 | -34.42538 | -56.62026 | 23697 ft | 217 kts | 306° |
| 2026-05-08 13:25 | -34.41568 | -56.63431 | 23698 ft | 218 kts | 306° |
| 2026-05-08 13:25 | -34.40595 | -56.64842 | 23701 ft | 218 kts | 306° |
| 2026-05-08 13:25 | -34.39635 | -56.66230 | 23704 ft | 218 kts | 306° |
| 2026-05-08 13:26 | -34.38663 | -56.67635 | 23704 ft | 218 kts | 306° |
| 2026-05-08 13:26 | -34.37690 | -56.69041 | 23707 ft | 218 kts | 306° |
| 2026-05-08 13:26 | -34.36704 | -56.70465 | 23702 ft | 218 kts | 306° |
| 2026-05-08 13:26 | -34.35744 | -56.71853 | 23709 ft | 218 kts | 306° |
| 2026-05-08 13:27 | -34.34769 | -56.73264 | 23709 ft | 218 kts | 306° |
| 2026-05-08 13:27 | -34.33797 | -56.74670 | 23716 ft | 218 kts | 306° |
| 2026-05-08 13:27 | -34.32819 | -56.76081 | 23715 ft | 218 kts | 306° |
| 2026-05-08 13:27 | -34.31842 | -56.77493 | 23709 ft | 218 kts | 306° |
| 2026-05-08 13:28 | -34.30866 | -56.78901 | 23720 ft | 218 kts | 306° |
| 2026-05-08 13:28 | -34.29888 | -56.80312 | 23720 ft | 218 kts | 306° |
| 2026-05-08 13:28 | -34.28909 | -56.81719 | 23720 ft | 218 kts | 306° |
| 2026-05-08 13:28 | -34.27931 | -56.83126 | 23723 ft | 219 kts | 306° |
| 2026-05-08 13:29 | -34.26951 | -56.84536 | 23729 ft | 219 kts | 306° |
| 2026-05-08 13:29 | -34.25971 | -56.85951 | 23731 ft | 220 kts | 306° |
| 2026-05-08 13:29 | -34.24999 | -56.87350 | 23730 ft | 220 kts | 306° |
| 2026-05-08 13:29 | -34.24014 | -56.88768 | 23731 ft | 220 kts | 306° |
| 2026-05-08 13:30 | -34.23032 | -56.90180 | 23734 ft | 219 kts | 306° |
| 2026-05-08 13:30 | -34.22051 | -56.91589 | 23737 ft | 219 kts | 306° |
| 2026-05-08 13:30 | -34.21069 | -56.93003 | 23735 ft | 220 kts | 306° |
| 2026-05-08 13:30 | -34.20086 | -56.94416 | 23737 ft | 220 kts | 306° |
| 2026-05-08 13:31 | -34.19102 | -56.95827 | 23740 ft | 219 kts | 306° |
| 2026-05-08 13:31 | -34.18119 | -56.97234 | 23743 ft | 219 kts | 306° |
| 2026-05-08 13:31 | -34.17136 | -56.98642 | 23738 ft | 219 kts | 306° |
| 2026-05-08 13:31 | -34.16152 | -57.00054 | 23740 ft | 219 kts | 306° |
| 2026-05-08 13:32 | -34.15170 | -57.01463 | 23742 ft | 219 kts | 306° |
| 2026-05-08 13:32 | -34.14196 | -57.02859 | 23742 ft | 220 kts | 306° |
| 2026-05-08 13:32 | -34.13210 | -57.04271 | 23742 ft | 220 kts | 306° |
| 2026-05-08 13:32 | -34.12223 | -57.05684 | 23746 ft | 220 kts | 306° |
| 2026-05-08 13:33 | -34.11239 | -57.07092 | 23745 ft | 220 kts | 306° |
| 2026-05-08 13:33 | -34.10252 | -57.08503 | 23745 ft | 220 kts | 306° |
| 2026-05-08 13:33 | -34.09267 | -57.09913 | 23746 ft | 220 kts | 305° |
| 2026-05-08 13:33 | -34.08277 | -57.11329 | 23749 ft | 221 kts | 306° |
| 2026-05-08 13:34 | -34.07280 | -57.12752 | 23750 ft | 222 kts | 306° |
| 2026-05-08 13:34 | -34.06289 | -57.14167 | 23747 ft | 221 kts | 306° |
| 2026-05-08 13:34 | -34.05296 | -57.15585 | 23754 ft | 221 kts | 305° |
| 2026-05-08 13:34 | -34.04304 | -57.17004 | 23750 ft | 221 kts | 305° |
| 2026-05-08 13:35 | -34.03312 | -57.18418 | 23752 ft | 221 kts | 306° |
| 2026-05-08 13:35 | -34.02319 | -57.19833 | 23750 ft | 221 kts | 306° |
| 2026-05-08 13:35 | -34.01324 | -57.21249 | 23752 ft | 221 kts | 305° |
| 2026-05-08 13:35 | -34.00328 | -57.22668 | 23755 ft | 222 kts | 305° |
| 2026-05-08 13:36 | -33.99333 | -57.24087 | 23749 ft | 222 kts | 305° |
| 2026-05-08 13:36 | -33.98335 | -57.25506 | 23753 ft | 221 kts | 305° |
| 2026-05-08 13:36 | -33.97341 | -57.26921 | 23757 ft | 221 kts | 305° |
| 2026-05-08 13:36 | -33.96348 | -57.28335 | 23754 ft | 221 kts | 305° |
| 2026-05-08 13:37 | -33.95354 | -57.29747 | 23753 ft | 221 kts | 306° |
| 2026-05-08 13:37 | -33.94357 | -57.31162 | 23760 ft | 221 kts | 305° |
| 2026-05-08 13:37 | -33.93377 | -57.32555 | 23761 ft | 221 kts | 305° |
| 2026-05-08 13:37 | -33.92384 | -57.33965 | 23762 ft | 221 kts | 305° |
| 2026-05-08 13:38 | -33.91390 | -57.35374 | 23759 ft | 221 kts | 305° |
| 2026-05-08 13:38 | -33.90393 | -57.36789 | 23761 ft | 221 kts | 305° |
| 2026-05-08 13:38 | -33.89395 | -57.38205 | 23764 ft | 222 kts | 305° |
| 2026-05-08 13:38 | -33.88397 | -57.39622 | 23765 ft | 222 kts | 305° |
| 2026-05-08 13:39 | -33.87396 | -57.41039 | 23764 ft | 222 kts | 305° |
| 2026-05-08 13:39 | -33.86394 | -57.42457 | 23765 ft | 223 kts | 305° |
| 2026-05-08 13:39 | -33.85391 | -57.43877 | 23768 ft | 222 kts | 305° |
| 2026-05-08 13:39 | -33.84388 | -57.45297 | 23765 ft | 222 kts | 305° |
| 2026-05-08 13:40 | -33.83386 | -57.46712 | 23768 ft | 222 kts | 305° |
| 2026-05-08 13:40 | -33.82384 | -57.48126 | 23767 ft | 222 kts | 305° |
| 2026-05-08 13:40 | -33.81380 | -57.49546 | 23768 ft | 223 kts | 305° |
| 2026-05-08 13:40 | -33.80378 | -57.50961 | 23763 ft | 223 kts | 306° |
| 2026-05-08 13:41 | -33.79373 | -57.52377 | 23769 ft | 222 kts | 305° |
| 2026-05-08 13:41 | -33.78370 | -57.53794 | 23769 ft | 222 kts | 305° |
| 2026-05-08 13:41 | -33.77372 | -57.55203 | 23768 ft | 222 kts | 306° |
| 2026-05-08 13:41 | -33.76381 | -57.56595 | 23770 ft | 221 kts | 306° |
| 2026-05-08 13:42 | -33.75384 | -57.58003 | 23767 ft | 221 kts | 305° |
| 2026-05-08 13:42 | -33.74385 | -57.59412 | 23770 ft | 221 kts | 305° |
| 2026-05-08 13:42 | -33.73386 | -57.60820 | 23772 ft | 221 kts | 305° |
| 2026-05-08 13:42 | -33.72388 | -57.62226 | 23769 ft | 221 kts | 305° |
| 2026-05-08 13:43 | -33.71388 | -57.63636 | 23774 ft | 222 kts | 305° |
| 2026-05-08 13:43 | -33.70385 | -57.65049 | 23775 ft | 223 kts | 305° |
| 2026-05-08 13:43 | -33.69378 | -57.66467 | 23773 ft | 223 kts | 305° |
| 2026-05-08 13:43 | -33.68369 | -57.67885 | 23774 ft | 222 kts | 305° |
| 2026-05-08 13:44 | -33.67366 | -57.69291 | 23771 ft | 222 kts | 305° |
| 2026-05-08 13:44 | -33.66363 | -57.70698 | 23774 ft | 222 kts | 305° |
| 2026-05-08 13:44 | -33.65360 | -57.72105 | 23778 ft | 221 kts | 305° |
| 2026-05-08 13:44 | -33.64359 | -57.73513 | 23774 ft | 222 kts | 305° |
| 2026-05-08 13:45 | -33.63358 | -57.74919 | 23777 ft | 221 kts | 305° |
| 2026-05-08 13:45 | -33.62358 | -57.76320 | 23774 ft | 221 kts | 305° |
| 2026-05-08 13:45 | -33.61355 | -57.77729 | 23777 ft | 221 kts | 305° |
| 2026-05-08 13:45 | -33.60356 | -57.79129 | 23779 ft | 221 kts | 305° |
| 2026-05-08 13:46 | -33.59357 | -57.80528 | 23781 ft | 221 kts | 305° |
| 2026-05-08 13:46 | -33.58355 | -57.81931 | 23779 ft | 221 kts | 305° |
| 2026-05-08 13:46 | -33.57358 | -57.83327 | 23778 ft | 221 kts | 305° |
| 2026-05-08 13:46 | -33.56357 | -57.84728 | 23781 ft | 221 kts | 305° |
| 2026-05-08 13:47 | -33.55360 | -57.86123 | 23784 ft | 221 kts | 305° |
| 2026-05-08 13:47 | -33.54373 | -57.87503 | 23783 ft | 221 kts | 305° |
| 2026-05-08 13:47 | -33.53373 | -57.88902 | 23783 ft | 221 kts | 305° |
| 2026-05-08 13:47 | -33.52372 | -57.90304 | 23785 ft | 221 kts | 305° |
| 2026-05-08 13:48 | -33.51369 | -57.91705 | 23782 ft | 222 kts | 305° |
| 2026-05-08 13:48 | -33.50361 | -57.93107 | 23788 ft | 221 kts | 305° |
| 2026-05-08 13:48 | -33.49357 | -57.94506 | 23789 ft | 221 kts | 305° |
| 2026-05-08 13:48 | -33.48681 | -57.95449 | 23786 ft | 221 kts | 305° |
| 2026-05-08 13:49 | -33.47691 | -57.96830 | 23790 ft | 221 kts | 305° |
| 2026-05-08 13:49 | -33.46688 | -57.98230 | 23790 ft | 221 kts | 305° |
| 2026-05-08 13:49 | -33.45684 | -57.99628 | 23793 ft | 221 kts | 305° |
| 2026-05-08 13:49 | -33.44680 | -58.01022 | 23791 ft | 221 kts | 305° |
| 2026-05-08 13:50 | -33.43680 | -58.02420 | 23792 ft | 221 kts | 305° |
| 2026-05-08 13:50 | -33.42679 | -58.03817 | 23796 ft | 221 kts | 305° |
| 2026-05-08 13:50 | -33.41674 | -58.05217 | 23798 ft | 221 kts | 305° |
| 2026-05-08 13:50 | -33.40671 | -58.06611 | 23796 ft | 221 kts | 305° |
| 2026-05-08 13:51 | -33.39666 | -58.08007 | 23801 ft | 222 kts | 305° |
| 2026-05-08 13:51 | -33.38661 | -58.09405 | 23801 ft | 222 kts | 305° |
| 2026-05-08 13:51 | -33.37653 | -58.10806 | 23803 ft | 222 kts | 305° |
| 2026-05-08 13:51 | -33.36659 | -58.12187 | 23804 ft | 222 kts | 305° |
| 2026-05-08 13:52 | -33.35653 | -58.13583 | 23803 ft | 222 kts | 305° |
| 2026-05-08 13:52 | -33.34646 | -58.14980 | 23805 ft | 222 kts | 305° |
| 2026-05-08 13:52 | -33.33638 | -58.16376 | 23806 ft | 222 kts | 305° |
| 2026-05-08 13:52 | -33.32633 | -58.17772 | 23809 ft | 222 kts | 305° |
| 2026-05-08 13:53 | -33.31625 | -58.19168 | 23807 ft | 221 kts | 305° |
| 2026-05-08 13:53 | -33.30621 | -58.20561 | 23811 ft | 221 kts | 305° |
| 2026-05-08 13:53 | -33.29614 | -58.21957 | 23811 ft | 221 kts | 305° |
| 2026-05-08 13:53 | -33.28608 | -58.23348 | 23813 ft | 221 kts | 305° |
| 2026-05-08 13:54 | -33.27600 | -58.24741 | 23813 ft | 221 kts | 305° |
| 2026-05-08 13:54 | -33.26594 | -58.26132 | 23816 ft | 221 kts | 305° |
| 2026-05-08 13:54 | -33.25586 | -58.27527 | 23817 ft | 221 kts | 305° |
| 2026-05-08 13:54 | -33.24578 | -58.28920 | 23816 ft | 221 kts | 305° |
| 2026-05-08 13:55 | -33.23573 | -58.30310 | 23818 ft | 221 kts | 305° |
| 2026-05-08 13:55 | -33.22563 | -58.31706 | 23814 ft | 221 kts | 305° |
| 2026-05-08 13:55 | -33.20558 | -58.34467 | 23821 ft | 221 kts | 306° |
| 2026-05-08 13:56 | -33.19550 | -58.35855 | 23821 ft | 221 kts | 305° |
| 2026-05-08 13:56 | -33.18544 | -58.37247 | 23822 ft | 221 kts | 305° |
| 2026-05-08 13:56 | -33.17538 | -58.38635 | 23822 ft | 221 kts | 305° |
| 2026-05-08 13:56 | -33.16533 | -58.40020 | 23826 ft | 221 kts | 305° |
| 2026-05-08 13:57 | -33.15526 | -58.41407 | 23823 ft | 221 kts | 305° |
| 2026-05-08 13:57 | -33.14521 | -58.42792 | 23825 ft | 221 kts | 305° |
| 2026-05-08 13:57 | -33.13515 | -58.44176 | 23823 ft | 221 kts | 305° |
| 2026-05-08 13:57 | -33.12507 | -58.45563 | 23824 ft | 221 kts | 305° |
| 2026-05-08 13:58 | -33.11502 | -58.46944 | 23826 ft | 221 kts | 305° |
| 2026-05-08 13:58 | -33.10496 | -58.48329 | 23825 ft | 220 kts | 305° |
| 2026-05-08 13:58 | -33.09491 | -58.49714 | 23823 ft | 221 kts | 305° |
| 2026-05-08 13:58 | -33.08484 | -58.51097 | 23824 ft | 221 kts | 305° |
| 2026-05-08 13:59 | -33.07478 | -58.52476 | 23820 ft | 221 kts | 305° |
| 2026-05-08 13:59 | -33.06473 | -58.53856 | 23824 ft | 220 kts | 305° |
| 2026-05-08 13:59 | -33.05468 | -58.55236 | 23821 ft | 220 kts | 305° |
| 2026-05-08 13:59 | -33.04474 | -58.56600 | 23821 ft | 220 kts | 305° |
| 2026-05-08 14:00 | -33.03466 | -58.57982 | 23822 ft | 220 kts | 305° |
| 2026-05-08 14:00 | -33.02462 | -58.59360 | 23821 ft | 220 kts | 305° |
| 2026-05-08 14:00 | -33.01458 | -58.60735 | 23821 ft | 220 kts | 305° |
| 2026-05-08 14:00 | -33.00498 | -58.62147 | 23826 ft | 218 kts | 300° |
| 2026-05-08 14:01 | -32.99602 | -58.63602 | 23822 ft | 218 kts | 301° |
| 2026-05-08 14:01 | -32.98695 | -58.65048 | 23821 ft | 218 kts | 301° |
| 2026-05-08 14:01 | -32.97786 | -58.66494 | 23823 ft | 218 kts | 301° |
| 2026-05-08 14:01 | -32.96879 | -58.67941 | 23828 ft | 218 kts | 301° |
| 2026-05-08 14:02 | -32.95975 | -58.69386 | 23825 ft | 218 kts | 301° |
| 2026-05-08 14:02 | -32.95067 | -58.70835 | 23829 ft | 218 kts | 301° |
| 2026-05-08 14:02 | -32.94159 | -58.72282 | 23827 ft | 218 kts | 301° |
| 2026-05-08 14:02 | -32.93260 | -58.73712 | 23832 ft | 218 kts | 301° |
| 2026-05-08 14:03 | -32.92342 | -58.75176 | 23835 ft | 218 kts | 301° |
| 2026-05-08 14:03 | -32.91437 | -58.76619 | 23835 ft | 218 kts | 301° |
| 2026-05-08 14:03 | -32.90527 | -58.78067 | 23837 ft | 218 kts | 301° |
| 2026-05-08 14:03 | -32.89620 | -58.79512 | 23836 ft | 218 kts | 301° |
| 2026-05-08 14:04 | -32.88711 | -58.80961 | 23842 ft | 218 kts | 301° |
| 2026-05-08 14:04 | -32.87818 | -58.82384 | 23844 ft | 218 kts | 301° |
| 2026-05-08 14:04 | -32.86904 | -58.83832 | 23847 ft | 218 kts | 301° |
| 2026-05-08 14:04 | -32.85995 | -58.85275 | 23850 ft | 218 kts | 301° |
| 2026-05-08 14:05 | -32.85090 | -58.86713 | 23854 ft | 218 kts | 301° |
| 2026-05-08 14:05 | -32.84182 | -58.88156 | 23857 ft | 217 kts | 301° |
| 2026-05-08 14:05 | -32.83276 | -58.89596 | 23860 ft | 217 kts | 301° |
| 2026-05-08 14:05 | -32.82371 | -58.91035 | 23863 ft | 217 kts | 301° |
| 2026-05-08 14:06 | -32.81462 | -58.92477 | 23866 ft | 217 kts | 301° |
| 2026-05-08 14:06 | -32.80555 | -58.93916 | 23874 ft | 217 kts | 301° |
| 2026-05-08 14:06 | -32.79649 | -58.95352 | 23879 ft | 217 kts | 301° |
| 2026-05-08 14:06 | -32.78742 | -58.96789 | 23879 ft | 217 kts | 301° |
| 2026-05-08 14:07 | -32.77834 | -58.98225 | 23880 ft | 217 kts | 301° |
| 2026-05-08 14:07 | -32.76927 | -58.99660 | 23880 ft | 217 kts | 301° |
| 2026-05-08 14:07 | -32.76019 | -59.01096 | 23885 ft | 217 kts | 301° |
| 2026-05-08 14:07 | -32.75111 | -59.02533 | 23882 ft | 217 kts | 301° |
| 2026-05-08 14:08 | -32.74217 | -59.03950 | 23882 ft | 217 kts | 300° |
| 2026-05-08 14:08 | -32.73311 | -59.05384 | 23883 ft | 217 kts | 301° |
| 2026-05-08 14:08 | -32.72402 | -59.06818 | 23886 ft | 217 kts | 301° |
| 2026-05-08 14:08 | -32.71494 | -59.08252 | 23891 ft | 217 kts | 301° |
| 2026-05-08 14:09 | -32.70585 | -59.09687 | 23892 ft | 217 kts | 301° |
| 2026-05-08 14:09 | -32.69676 | -59.11119 | 23895 ft | 217 kts | 301° |
| 2026-05-08 14:09 | -32.68767 | -59.12551 | 23893 ft | 217 kts | 301° |
| 2026-05-08 14:09 | -32.67858 | -59.13983 | 23895 ft | 217 kts | 301° |
| 2026-05-08 14:10 | -32.66952 | -59.15413 | 23896 ft | 217 kts | 301° |
| 2026-05-08 14:10 | -32.66043 | -59.16846 | 23895 ft | 217 kts | 301° |
| 2026-05-08 14:10 | -32.65137 | -59.18275 | 23897 ft | 217 kts | 301° |
| 2026-05-08 14:10 | -32.64228 | -59.19704 | 23901 ft | 217 kts | 301° |
| 2026-05-08 14:11 | -32.63321 | -59.21132 | 23901 ft | 217 kts | 301° |
| 2026-05-08 14:11 | -32.62423 | -59.22545 | 23903 ft | 216 kts | 300° |
| 2026-05-08 14:11 | -32.61520 | -59.23969 | 23905 ft | 216 kts | 300° |
| 2026-05-08 14:11 | -32.60614 | -59.25394 | 23905 ft | 216 kts | 300° |
| 2026-05-08 14:12 | -32.59707 | -59.26819 | 23906 ft | 216 kts | 300° |
| 2026-05-08 14:12 | -32.58801 | -59.28243 | 23908 ft | 216 kts | 300° |
| 2026-05-08 14:12 | -32.57894 | -59.29667 | 23906 ft | 216 kts | 300° |
| 2026-05-08 14:12 | -32.56991 | -59.31085 | 23912 ft | 216 kts | 300° |
| 2026-05-08 14:13 | -32.56086 | -59.32506 | 23908 ft | 216 kts | 300° |
| 2026-05-08 14:13 | -32.55181 | -59.33933 | 23911 ft | 216 kts | 300° |
| 2026-05-08 14:13 | -32.54275 | -59.35359 | 23913 ft | 216 kts | 300° |
| 2026-05-08 14:13 | -32.53366 | -59.36781 | 23916 ft | 216 kts | 300° |
| 2026-05-08 14:14 | -32.52459 | -59.38201 | 23914 ft | 216 kts | 300° |
| 2026-05-08 14:14 | -32.51554 | -59.39624 | 23920 ft | 216 kts | 300° |
| 2026-05-08 14:14 | -32.50659 | -59.41027 | 23918 ft | 216 kts | 300° |
| 2026-05-08 14:14 | -32.49750 | -59.42447 | 23919 ft | 216 kts | 300° |
| 2026-05-08 14:15 | -32.48843 | -59.43862 | 23919 ft | 216 kts | 300° |
| 2026-05-08 14:15 | -32.47934 | -59.45284 | 23924 ft | 216 kts | 300° |
| 2026-05-08 14:15 | -32.47027 | -59.46704 | 23922 ft | 216 kts | 300° |
| 2026-05-08 14:15 | -32.46120 | -59.48122 | 23928 ft | 216 kts | 300° |
| 2026-05-08 14:16 | -32.45211 | -59.49543 | 23926 ft | 216 kts | 300° |
| 2026-05-08 14:16 | -32.44304 | -59.50959 | 23924 ft | 216 kts | 300° |
| 2026-05-08 14:16 | -32.43394 | -59.52377 | 23927 ft | 216 kts | 299° |
| 2026-05-08 14:16 | -32.42488 | -59.53796 | 23931 ft | 216 kts | 299° |
| 2026-05-08 14:17 | -32.41580 | -59.55213 | 23934 ft | 216 kts | 299° |
| 2026-05-08 14:17 | -32.40679 | -59.56615 | 23932 ft | 216 kts | 299° |
| 2026-05-08 14:17 | -32.39772 | -59.58029 | 23932 ft | 216 kts | 299° |
| 2026-05-08 14:17 | -32.38866 | -59.59444 | 23930 ft | 216 kts | 299° |
| 2026-05-08 14:18 | -32.37958 | -59.60860 | 23936 ft | 216 kts | 299° |
| 2026-05-08 14:18 | -32.37050 | -59.62277 | 23936 ft | 216 kts | 298° |
| 2026-05-08 14:18 | -32.36143 | -59.63692 | 23940 ft | 216 kts | 299° |
| 2026-05-08 14:18 | -32.35229 | -59.65103 | 23940 ft | 216 kts | 299° |
| 2026-05-08 14:19 | -32.34316 | -59.66515 | 23942 ft | 216 kts | 299° |
| 2026-05-08 14:19 | -32.33404 | -59.67928 | 23944 ft | 216 kts | 299° |
| 2026-05-08 14:19 | -32.32492 | -59.69334 | 23943 ft | 216 kts | 299° |
| 2026-05-08 14:19 | -32.31581 | -59.70747 | 23944 ft | 215 kts | 299° |
| 2026-05-08 14:20 | -32.30673 | -59.72154 | 23948 ft | 215 kts | 298° |
| 2026-05-08 14:20 | -32.29766 | -59.73561 | 23947 ft | 215 kts | 299° |
| 2026-05-08 14:20 | -32.28859 | -59.74965 | 23946 ft | 215 kts | 299° |
| 2026-05-08 14:20 | -32.27951 | -59.76369 | 23952 ft | 215 kts | 299° |
| 2026-05-08 14:21 | -32.27040 | -59.77770 | 23951 ft | 215 kts | 299° |
| 2026-05-08 14:21 | -32.26130 | -59.79173 | 23950 ft | 215 kts | 299° |
| 2026-05-08 14:21 | -32.25230 | -59.80560 | 23955 ft | 215 kts | 299° |
| 2026-05-08 14:21 | -32.24325 | -59.81960 | 23954 ft | 214 kts | 298° |
| 2026-05-08 14:22 | -32.23418 | -59.83362 | 23956 ft | 214 kts | 298° |
| 2026-05-08 14:22 | -32.22509 | -59.84759 | 23954 ft | 214 kts | 298° |
| 2026-05-08 14:22 | -32.21602 | -59.86156 | 23956 ft | 214 kts | 298° |
| 2026-05-08 14:22 | -32.20696 | -59.87550 | 23962 ft | 214 kts | 298° |
| 2026-05-08 14:23 | -32.19789 | -59.88946 | 23958 ft | 214 kts | 299° |
| 2026-05-08 14:23 | -32.18882 | -59.90339 | 23965 ft | 214 kts | 298° |
| 2026-05-08 14:23 | -32.17977 | -59.91732 | 23966 ft | 213 kts | 298° |
| 2026-05-08 14:23 | -32.17074 | -59.93121 | 23966 ft | 213 kts | 298° |
| 2026-05-08 14:24 | -32.16170 | -59.94514 | 23966 ft | 213 kts | 298° |
| 2026-05-08 14:24 | -32.15269 | -59.95899 | 23968 ft | 213 kts | 298° |
| 2026-05-08 14:24 | -32.14363 | -59.97289 | 23969 ft | 213 kts | 298° |
| 2026-05-08 14:24 | -32.13475 | -59.98656 | 23970 ft | 213 kts | 298° |
| 2026-05-08 14:25 | -32.12570 | -60.00044 | 23968 ft | 213 kts | 298° |
| 2026-05-08 14:25 | -32.11666 | -60.01432 | 23972 ft | 212 kts | 298° |
| 2026-05-08 14:25 | -32.10767 | -60.02816 | 23977 ft | 212 kts | 298° |
| 2026-05-08 14:25 | -32.09869 | -60.04196 | 23973 ft | 212 kts | 298° |
| 2026-05-08 14:26 | -32.08962 | -60.05581 | 23977 ft | 212 kts | 298° |
| 2026-05-08 14:26 | -32.08071 | -60.06943 | 23977 ft | 212 kts | 298° |
| 2026-05-08 14:26 | -32.07172 | -60.08321 | 23980 ft | 212 kts | 298° |
| 2026-05-08 14:26 | -32.06269 | -60.09703 | 23980 ft | 212 kts | 298° |
| 2026-05-08 14:27 | -32.05369 | -60.11080 | 23978 ft | 212 kts | 298° |
| 2026-05-08 14:27 | -32.04464 | -60.12457 | 23982 ft | 212 kts | 298° |
| 2026-05-08 14:27 | -32.03563 | -60.13837 | 23987 ft | 212 kts | 298° |
| 2026-05-08 14:27 | -32.02666 | -60.15214 | 23983 ft | 212 kts | 298° |
| 2026-05-08 14:28 | -32.01768 | -60.16589 | 23984 ft | 212 kts | 298° |
| 2026-05-08 14:28 | -32.00868 | -60.17965 | 23983 ft | 212 kts | 298° |
| 2026-05-08 14:28 | -31.99970 | -60.19337 | 23984 ft | 211 kts | 298° |
| 2026-05-08 14:28 | -31.99071 | -60.20712 | 23980 ft | 212 kts | 298° |
| 2026-05-08 14:29 | -31.98174 | -60.22085 | 23983 ft | 212 kts | 298° |
| 2026-05-08 14:29 | -31.97274 | -60.23462 | 23982 ft | 212 kts | 298° |
| 2026-05-08 14:29 | -31.96385 | -60.24817 | 23980 ft | 211 kts | 298° |
| 2026-05-08 14:29 | -31.95485 | -60.26186 | 23975 ft | 212 kts | 298° |
| 2026-05-08 14:30 | -31.94585 | -60.27561 | 23975 ft | 212 kts | 298° |
| 2026-05-08 14:30 | -31.93687 | -60.28930 | 23974 ft | 212 kts | 298° |
| 2026-05-08 14:30 | -31.92786 | -60.30302 | 23974 ft | 211 kts | 298° |
| 2026-05-08 14:30 | -31.91887 | -60.31671 | 23971 ft | 212 kts | 298° |
| 2026-05-08 14:31 | -31.90984 | -60.33045 | 23972 ft | 212 kts | 298° |
| 2026-05-08 14:31 | -31.90086 | -60.34414 | 23966 ft | 211 kts | 298° |
| 2026-05-08 14:31 | -31.89189 | -60.35783 | 23964 ft | 211 kts | 298° |
| 2026-05-08 14:32 | -31.87385 | -60.38517 | 23963 ft | 212 kts | 298° |
| 2026-05-08 14:32 | -31.86484 | -60.39887 | 23959 ft | 212 kts | 298° |
| 2026-05-08 14:32 | -31.85582 | -60.41257 | 23956 ft | 212 kts | 298° |
| 2026-05-08 14:32 | -31.84693 | -60.42611 | 23957 ft | 211 kts | 298° |
| 2026-05-08 14:33 | -31.83795 | -60.43981 | 23959 ft | 211 kts | 298° |
| 2026-05-08 14:33 | -31.82891 | -60.45349 | 23963 ft | 212 kts | 298° |
| 2026-05-08 14:33 | -31.81992 | -60.46720 | 23961 ft | 210 kts | 296° |
| 2026-05-08 14:33 | -31.81270 | -60.48181 | 23959 ft | 205 kts | 288° |
| 2026-05-08 14:34 | -31.80771 | -60.49735 | 23962 ft | 201 kts | 280° |
| 2026-05-08 14:34 | -31.80495 | -60.51332 | 23961 ft | 199 kts | 273° |
| 2026-05-08 14:34 | -31.80314 | -60.52942 | 23964 ft | 199 kts | 274° |
| 2026-05-08 14:34 | -31.80117 | -60.54555 | 23963 ft | 199 kts | 274° |
| 2026-05-08 14:35 | -31.79923 | -60.56167 | 23961 ft | 199 kts | 274° |
| 2026-05-08 14:35 | -31.79735 | -60.57781 | 23963 ft | 199 kts | 274° |
| 2026-05-08 14:35 | -31.79544 | -60.59396 | 23962 ft | 199 kts | 274° |
| 2026-05-08 14:35 | -31.79349 | -60.61013 | 23965 ft | 200 kts | 274° |
| 2026-05-08 14:36 | -31.79155 | -60.62628 | 23970 ft | 200 kts | 274° |
| 2026-05-08 14:36 | -31.79028 | -60.63698 | 23969 ft | 200 kts | 274° |
| 2026-05-08 14:36 | -31.78771 | -60.65859 | 23971 ft | 200 kts | 274° |
| 2026-05-08 14:36 | -31.78644 | -60.66929 | 23990 ft | 200 kts | 274° |
| 2026-05-08 14:37 | -31.78383 | -60.69076 | 23989 ft | 200 kts | 274° |
| 2026-05-08 14:37 | -31.78190 | -60.70697 | 23991 ft | 200 kts | 274° |
| 2026-05-08 14:37 | -31.77995 | -60.72321 | 23987 ft | 200 kts | 274° |
| 2026-05-08 14:37 | -31.77865 | -60.73393 | 23988 ft | 200 kts | 274° |
| 2026-05-08 14:38 | -31.77605 | -60.75562 | 23986 ft | 200 kts | 274° |
| 2026-05-08 14:38 | -31.77476 | -60.76635 | 23987 ft | 200 kts | 274° |
| 2026-05-08 14:38 | -31.77285 | -60.78254 | 23984 ft | 200 kts | 274° |
| 2026-05-08 14:38 | -31.77089 | -60.79872 | 23988 ft | 200 kts | 274° |
| 2026-05-08 14:39 | -31.76896 | -60.81492 | 23987 ft | 200 kts | 274° |
| 2026-05-08 14:39 | -31.76700 | -60.83113 | 23988 ft | 200 kts | 274° |
| 2026-05-08 14:39 | -31.76502 | -60.84738 | 23986 ft | 200 kts | 274° |
| 2026-05-08 14:39 | -31.76306 | -60.86362 | 23987 ft | 201 kts | 274° |
| 2026-05-08 14:40 | -31.76113 | -60.87965 | 23987 ft | 201 kts | 274° |
| 2026-05-08 14:40 | -31.75915 | -60.89588 | 23985 ft | 201 kts | 274° |
| 2026-05-08 14:40 | -31.75717 | -60.91208 | 23987 ft | 201 kts | 274° |
| 2026-05-08 14:40 | -31.75519 | -60.92833 | 23989 ft | 201 kts | 274° |
| 2026-05-08 14:41 | -31.75321 | -60.94456 | 23989 ft | 201 kts | 274° |
| 2026-05-08 14:41 | -31.75123 | -60.96081 | 23994 ft | 201 kts | 274° |
| 2026-05-08 14:41 | -31.74927 | -60.97708 | 23991 ft | 201 kts | 274° |
| 2026-05-08 14:41 | -31.74730 | -60.99333 | 23995 ft | 201 kts | 274° |
| 2026-05-08 14:42 | -31.74531 | -61.00954 | 23998 ft | 201 kts | 274° |
| 2026-05-08 14:42 | -31.74327 | -61.02580 | 23999 ft | 201 kts | 274° |
| 2026-05-08 14:42 | -31.74130 | -61.04206 | 24003 ft | 201 kts | 274° |
| 2026-05-08 14:42 | -31.73933 | -61.05827 | 24003 ft | 201 kts | 274° |
| 2026-05-08 14:43 | -31.73734 | -61.07450 | 24006 ft | 201 kts | 274° |
| 2026-05-08 14:43 | -31.73533 | -61.09074 | 24007 ft | 201 kts | 274° |
| 2026-05-08 14:43 | -31.73331 | -61.10697 | 24012 ft | 201 kts | 274° |
| 2026-05-08 14:43 | -31.73133 | -61.12321 | 24013 ft | 201 kts | 274° |
| 2026-05-08 14:44 | -31.72934 | -61.13940 | 24013 ft | 201 kts | 274° |
| 2026-05-08 14:44 | -31.72732 | -61.15565 | 24016 ft | 201 kts | 274° |
| 2026-05-08 14:44 | -31.72530 | -61.17190 | 24018 ft | 201 kts | 274° |
| 2026-05-08 14:44 | -31.72333 | -61.18790 | 24023 ft | 201 kts | 274° |
| 2026-05-08 14:45 | -31.72131 | -61.20433 | 24025 ft | 201 kts | 274° |
| 2026-05-08 14:45 | -31.71932 | -61.22031 | 24025 ft | 201 kts | 274° |
| 2026-05-08 14:45 | -31.71733 | -61.23651 | 24028 ft | 201 kts | 274° |
| 2026-05-08 14:45 | -31.71531 | -61.25272 | 24031 ft | 201 kts | 274° |
| 2026-05-08 14:46 | -31.71329 | -61.26896 | 24028 ft | 201 kts | 274° |
| 2026-05-08 14:46 | -31.71127 | -61.28521 | 24030 ft | 201 kts | 274° |
| 2026-05-08 14:46 | -31.70925 | -61.30142 | 24034 ft | 200 kts | 274° |
| 2026-05-08 14:46 | -31.70721 | -61.31764 | 24032 ft | 200 kts | 274° |
| 2026-05-08 14:47 | -31.70517 | -61.33384 | 24030 ft | 200 kts | 274° |
| 2026-05-08 14:47 | -31.70316 | -61.35000 | 24031 ft | 200 kts | 274° |
| 2026-05-08 14:47 | -31.70114 | -61.36618 | 24031 ft | 200 kts | 274° |
| 2026-05-08 14:47 | -31.69911 | -61.38232 | 24033 ft | 200 kts | 274° |
| 2026-05-08 14:48 | -31.69709 | -61.39846 | 24031 ft | 200 kts | 274° |
| 2026-05-08 14:48 | -31.69507 | -61.41462 | 24032 ft | 200 kts | 274° |
| 2026-05-08 14:48 | -31.69305 | -61.43075 | 24034 ft | 200 kts | 274° |
| 2026-05-08 14:48 | -31.69103 | -61.44688 | 24034 ft | 200 kts | 274° |
| 2026-05-08 14:49 | -31.68900 | -61.46303 | 24035 ft | 200 kts | 274° |
| 2026-05-08 14:49 | -31.68699 | -61.47893 | 24035 ft | 200 kts | 274° |
| 2026-05-08 14:49 | -31.68495 | -61.49506 | 24036 ft | 200 kts | 274° |
| 2026-05-08 14:49 | -31.68292 | -61.51116 | 24038 ft | 200 kts | 274° |
| 2026-05-08 14:50 | -31.68088 | -61.52729 | 24039 ft | 199 kts | 274° |
| 2026-05-08 14:50 | -31.67885 | -61.54337 | 24039 ft | 199 kts | 274° |
| 2026-05-08 14:50 | -31.67681 | -61.55947 | 24038 ft | 199 kts | 274° |
| 2026-05-08 14:50 | -31.67475 | -61.57561 | 24039 ft | 199 kts | 274° |
| 2026-05-08 14:51 | -31.67268 | -61.59175 | 24039 ft | 199 kts | 274° |
| 2026-05-08 14:51 | -31.67061 | -61.60786 | 24037 ft | 199 kts | 274° |
| 2026-05-08 14:51 | -31.66854 | -61.62393 | 24038 ft | 199 kts | 274° |
| 2026-05-08 14:51 | -31.66648 | -61.64004 | 24037 ft | 199 kts | 274° |
| 2026-05-08 14:52 | -31.66445 | -61.65614 | 24039 ft | 199 kts | 274° |
| 2026-05-08 14:52 | -31.66048 | -61.68830 | 24041 ft | 199 kts | 274° |
| 2026-05-08 14:52 | -31.65842 | -61.70420 | 24041 ft | 199 kts | 274° |
| 2026-05-08 14:53 | -31.65636 | -61.72024 | 24037 ft | 199 kts | 274° |
| 2026-05-08 14:53 | -31.65431 | -61.73630 | 24039 ft | 199 kts | 274° |
| 2026-05-08 14:53 | -31.65225 | -61.75240 | 24043 ft | 199 kts | 274° |
| 2026-05-08 14:53 | -31.65019 | -61.76843 | 24043 ft | 199 kts | 274° |
| 2026-05-08 14:54 | -31.64812 | -61.78452 | 24043 ft | 199 kts | 274° |
| 2026-05-08 14:54 | -31.64606 | -61.80059 | 24043 ft | 199 kts | 274° |
| 2026-05-08 14:54 | -31.64399 | -61.81664 | 24044 ft | 199 kts | 274° |
| 2026-05-08 14:54 | -31.64193 | -61.83270 | 24044 ft | 199 kts | 274° |
| 2026-05-08 14:55 | -31.63986 | -61.84875 | 24043 ft | 199 kts | 274° |
| 2026-05-08 14:55 | -31.63777 | -61.86483 | 24043 ft | 199 kts | 274° |
| 2026-05-08 14:55 | -31.63571 | -61.88088 | 24043 ft | 199 kts | 274° |
| 2026-05-08 14:55 | -31.63364 | -61.89694 | 24045 ft | 199 kts | 274° |
| 2026-05-08 14:56 | -31.63156 | -61.91299 | 24044 ft | 199 kts | 274° |
| 2026-05-08 14:56 | -31.62947 | -61.92906 | 24045 ft | 199 kts | 274° |
| 2026-05-08 14:56 | -31.62739 | -61.94512 | 24047 ft | 199 kts | 274° |
| 2026-05-08 14:56 | -31.62529 | -61.96116 | 24047 ft | 199 kts | 274° |
| 2026-05-08 14:57 | -31.62319 | -61.97718 | 24050 ft | 199 kts | 274° |
| 2026-05-08 14:57 | -31.62111 | -61.99324 | 24047 ft | 199 kts | 274° |
| 2026-05-08 14:57 | -31.61905 | -62.00928 | 24050 ft | 199 kts | 274° |
| 2026-05-08 14:57 | -31.61696 | -62.02529 | 24050 ft | 199 kts | 274° |
| 2026-05-08 14:58 | -31.61490 | -62.04108 | 24045 ft | 199 kts | 274° |
| 2026-05-08 14:58 | -31.61280 | -62.05712 | 24045 ft | 199 kts | 274° |
| 2026-05-08 14:58 | -31.61066 | -62.07318 | 24048 ft | 199 kts | 274° |
| 2026-05-08 14:58 | -31.60856 | -62.08919 | 24045 ft | 199 kts | 273° |
| 2026-05-08 14:59 | -31.60648 | -62.10521 | 24051 ft | 199 kts | 274° |
| 2026-05-08 14:59 | -31.60228 | -62.13722 | 24048 ft | 199 kts | 273° |
| 2026-05-08 14:59 | -31.60016 | -62.15327 | 24051 ft | 199 kts | 273° |
| 2026-05-08 15:00 | -31.59807 | -62.16927 | 24047 ft | 199 kts | 273° |
| 2026-05-08 15:00 | -31.59597 | -62.18531 | 24050 ft | 199 kts | 273° |
| 2026-05-08 15:00 | -31.59385 | -62.20133 | 24050 ft | 199 kts | 273° |
| 2026-05-08 15:00 | -31.59174 | -62.21736 | 24042 ft | 199 kts | 273° |
| 2026-05-08 15:01 | -31.58962 | -62.23342 | 24048 ft | 199 kts | 273° |
| 2026-05-08 15:01 | -31.58751 | -62.24941 | 24051 ft | 198 kts | 273° |
| 2026-05-08 15:01 | -31.58537 | -62.26543 | 24048 ft | 199 kts | 273° |
| 2026-05-08 15:01 | -31.58324 | -62.28121 | 24053 ft | 199 kts | 273° |
| 2026-05-08 15:02 | -31.58110 | -62.29743 | 24053 ft | 199 kts | 273° |
| 2026-05-08 15:02 | -31.57898 | -62.31322 | 24050 ft | 199 kts | 273° |
| 2026-05-08 15:02 | -31.57685 | -62.32922 | 24049 ft | 199 kts | 273° |
| 2026-05-08 15:02 | -31.57473 | -62.34527 | 24045 ft | 199 kts | 273° |
| 2026-05-08 15:03 | -31.57260 | -62.36129 | 24050 ft | 199 kts | 273° |
| 2026-05-08 15:03 | -31.57048 | -62.37735 | 24047 ft | 199 kts | 273° |
| 2026-05-08 15:03 | -31.56835 | -62.39338 | 24047 ft | 199 kts | 273° |
| 2026-05-08 15:03 | -31.56620 | -62.40942 | 24048 ft | 199 kts | 273° |
| 2026-05-08 15:04 | -31.56405 | -62.42545 | 24047 ft | 199 kts | 273° |
| 2026-05-08 15:04 | -31.56189 | -62.44152 | 24046 ft | 199 kts | 273° |
| 2026-05-08 15:04 | -31.55976 | -62.45758 | 24040 ft | 199 kts | 273° |
| 2026-05-08 15:04 | -31.55762 | -62.47362 | 24035 ft | 199 kts | 273° |
| 2026-05-08 15:05 | -31.55543 | -62.48966 | 24042 ft | 199 kts | 273° |
| 2026-05-08 15:05 | -31.55326 | -62.50573 | 24044 ft | 199 kts | 273° |
| 2026-05-08 15:05 | -31.55111 | -62.52174 | 24043 ft | 199 kts | 273° |
| 2026-05-08 15:05 | -31.54894 | -62.53783 | 24043 ft | 199 kts | 273° |
| 2026-05-08 15:06 | -31.54679 | -62.55384 | 24044 ft | 199 kts | 272° |
| 2026-05-08 15:06 | -31.54462 | -62.56988 | 24045 ft | 199 kts | 273° |
| 2026-05-08 15:06 | -31.54247 | -62.58570 | 24042 ft | 199 kts | 273° |
| 2026-05-08 15:06 | -31.54030 | -62.60174 | 24046 ft | 199 kts | 272° |
| 2026-05-08 15:07 | -31.53815 | -62.61777 | 24022 ft | 200 kts | 273° |
| 2026-05-08 15:07 | -31.53596 | -62.63419 | 23784 ft | 207 kts | 272° |
| 2026-05-08 15:07 | -31.53370 | -62.65105 | 23506 ft | 212 kts | 273° |
| 2026-05-08 15:07 | -31.53139 | -62.66821 | 23203 ft | 214 kts | 272° |
| 2026-05-08 15:08 | -31.52906 | -62.68543 | 22920 ft | 214 kts | 273° |
| 2026-05-08 15:08 | -31.52750 | -62.69682 | 22731 ft | 214 kts | 273° |
| 2026-05-08 15:08 | -31.52432 | -62.71967 | 22354 ft | 211 kts | 273° |
| 2026-05-08 15:08 | -31.52201 | -62.73646 | 22081 ft | 207 kts | 273° |
| 2026-05-08 15:09 | -31.51975 | -62.75303 | 21807 ft | 204 kts | 273° |
| 2026-05-08 15:09 | -31.51752 | -62.76938 | 21549 ft | 203 kts | 273° |
| 2026-05-08 15:09 | -31.51530 | -62.78565 | 21285 ft | 201 kts | 273° |
| 2026-05-08 15:09 | -31.51308 | -62.80181 | 21020 ft | 200 kts | 273° |
| 2026-05-08 15:10 | -31.51086 | -62.81788 | 20754 ft | 199 kts | 273° |
| 2026-05-08 15:10 | -31.50868 | -62.83392 | 20496 ft | 199 kts | 273° |
| 2026-05-08 15:10 | -31.50652 | -62.84965 | 20239 ft | 198 kts | 273° |
| 2026-05-08 15:10 | -31.50435 | -62.86555 | 19976 ft | 197 kts | 273° |
| 2026-05-08 15:11 | -31.50214 | -62.88160 | 19714 ft | 197 kts | 273° |
| 2026-05-08 15:11 | -31.49996 | -62.89740 | 19452 ft | 196 kts | 273° |
| 2026-05-08 15:11 | -31.49781 | -62.91297 | 19200 ft | 196 kts | 273° |
| 2026-05-08 15:11 | -31.49567 | -62.92868 | 18940 ft | 195 kts | 273° |
| 2026-05-08 15:12 | -31.49351 | -62.94437 | 18677 ft | 195 kts | 273° |
| 2026-05-08 15:12 | -31.49135 | -62.96001 | 18423 ft | 194 kts | 273° |
| 2026-05-08 15:12 | -31.48920 | -62.97557 | 18152 ft | 193 kts | 274° |
| 2026-05-08 15:12 | -31.48704 | -62.99102 | 17899 ft | 191 kts | 273° |
| 2026-05-08 15:13 | -31.48490 | -63.00639 | 17647 ft | 190 kts | 273° |
| 2026-05-08 15:13 | -31.48279 | -63.02166 | 17399 ft | 190 kts | 273° |
| 2026-05-08 15:13 | -31.48068 | -63.03690 | 17149 ft | 189 kts | 273° |
| 2026-05-08 15:13 | -31.47856 | -63.05214 | 16894 ft | 189 kts | 273° |
| 2026-05-08 15:14 | -31.47645 | -63.06737 | 16645 ft | 189 kts | 272° |
| 2026-05-08 15:14 | -31.47435 | -63.08260 | 16395 ft | 189 kts | 272° |
| 2026-05-08 15:14 | -31.47223 | -63.09783 | 16140 ft | 190 kts | 272° |
| 2026-05-08 15:14 | -31.47008 | -63.11307 | 15891 ft | 190 kts | 272° |
| 2026-05-08 15:15 | -31.46794 | -63.12836 | 15641 ft | 190 kts | 272° |
| 2026-05-08 15:15 | -31.46582 | -63.14344 | 15390 ft | 185 kts | 272° |
| 2026-05-08 15:15 | -31.46469 | -63.15814 | 15148 ft | 179 kts | 266° |
| 2026-05-08 15:15 | -31.46398 | -63.17267 | 14913 ft | 178 kts | 268° |
| 2026-05-08 15:16 | -31.46319 | -63.18711 | 14679 ft | 177 kts | 267° |
| 2026-05-08 15:16 | -31.46242 | -63.20150 | 14443 ft | 177 kts | 267° |
| 2026-05-08 15:16 | -31.46166 | -63.21587 | 14211 ft | 177 kts | 267° |
| 2026-05-08 15:16 | -31.46092 | -63.23026 | 13974 ft | 177 kts | 267° |
| 2026-05-08 15:17 | -31.46018 | -63.24450 | 13723 ft | 177 kts | 266° |
| 2026-05-08 15:17 | -31.45941 | -63.25907 | 13493 ft | 177 kts | 266° |
| 2026-05-08 15:17 | -31.45866 | -63.27327 | 13260 ft | 177 kts | 266° |
| 2026-05-08 15:17 | -31.45789 | -63.28764 | 13027 ft | 177 kts | 266° |
| 2026-05-08 15:18 | -31.45715 | -63.30201 | 12795 ft | 177 kts | 266° |
| 2026-05-08 15:18 | -31.45638 | -63.31642 | 12559 ft | 178 kts | 266° |
| 2026-05-08 15:18 | -31.45561 | -63.33085 | 12321 ft | 178 kts | 266° |
| 2026-05-08 15:18 | -31.45483 | -63.34536 | 12087 ft | 179 kts | 266° |
| 2026-05-08 15:19 | -31.45404 | -63.35995 | 11850 ft | 180 kts | 266° |
| 2026-05-08 15:19 | -31.45324 | -63.37461 | 11608 ft | 181 kts | 266° |
| 2026-05-08 15:19 | -31.45244 | -63.38937 | 11370 ft | 182 kts | 266° |
| 2026-05-08 15:19 | -31.45165 | -63.40415 | 11127 ft | 182 kts | 266° |
| 2026-05-08 15:20 | -31.45085 | -63.41905 | 10880 ft | 183 kts | 266° |
| 2026-05-08 15:20 | -31.45006 | -63.43399 | 10637 ft | 184 kts | 266° |
| 2026-05-08 15:20 | -31.44924 | -63.44899 | 10394 ft | 184 kts | 266° |
| 2026-05-08 15:20 | -31.44840 | -63.46401 | 10145 ft | 186 kts | 266° |
| 2026-05-08 15:21 | -31.44758 | -63.47913 | 9899 ft | 187 kts | 266° |
| 2026-05-08 15:21 | -31.44675 | -63.49429 | 9646 ft | 185 kts | 266° |
| 2026-05-08 15:21 | -31.44588 | -63.50925 | 9396 ft | 182 kts | 266° |
| 2026-05-08 15:21 | -31.44506 | -63.52396 | 9161 ft | 181 kts | 266° |
| 2026-05-08 15:22 | -31.44425 | -63.53860 | 8919 ft | 179 kts | 266° |
| 2026-05-08 15:22 | -31.44346 | -63.55318 | 8682 ft | 179 kts | 265° |
| 2026-05-08 15:22 | -31.44265 | -63.56771 | 8443 ft | 179 kts | 265° |
| 2026-05-08 15:22 | -31.44187 | -63.58202 | 8215 ft | 178 kts | 265° |
| 2026-05-08 15:23 | -31.44108 | -63.59650 | 7976 ft | 179 kts | 265° |
| 2026-05-08 15:23 | -31.44028 | -63.61105 | 7741 ft | 179 kts | 265° |
| 2026-05-08 15:23 | -31.43949 | -63.62565 | 7497 ft | 180 kts | 265° |
| 2026-05-08 15:23 | -31.43867 | -63.64031 | 7258 ft | 180 kts | 265° |
| 2026-05-08 15:24 | -31.43785 | -63.65494 | 7019 ft | 181 kts | 265° |
| 2026-05-08 15:24 | -31.43702 | -63.66964 | 6782 ft | 181 kts | 265° |
| 2026-05-08 15:24 | -31.43618 | -63.68431 | 6540 ft | 179 kts | 265° |
| 2026-05-08 15:24 | -31.43535 | -63.69875 | 6301 ft | 177 kts | 265° |
| 2026-05-08 15:25 | -31.43452 | -63.71308 | 6063 ft | 175 kts | 265° |
| 2026-05-08 15:25 | -31.43427 | -63.72231 | 6039 ft | 167 kts | 262° |
| 2026-05-08 15:25 | -31.43440 | -63.74046 | 6033 ft | 171 kts | 262° |
| 2026-05-08 15:25 | -31.43446 | -63.74976 | 6037 ft | 172 kts | 262° |
| 2026-05-08 15:26 | -31.43449 | -63.76368 | 6034 ft | 170 kts | 262° |
| 2026-05-08 15:26 | -31.43453 | -63.77755 | 6031 ft | 170 kts | 262° |
| 2026-05-08 15:26 | -31.43458 | -63.79146 | 6029 ft | 171 kts | 263° |
| 2026-05-08 15:26 | -31.43457 | -63.80538 | 6025 ft | 170 kts | 263° |
| 2026-05-08 15:27 | -31.43460 | -63.81924 | 6028 ft | 170 kts | 263° |
| 2026-05-08 15:27 | -31.43463 | -63.83314 | 6010 ft | 172 kts | 263° |
| 2026-05-08 15:27 | -31.43467 | -63.84717 | 5915 ft | 171 kts | 263° |
| 2026-05-08 15:27 | -31.43462 | -63.86075 | 5804 ft | 163 kts | 264° |
| 2026-05-08 15:28 | -31.43461 | -63.87380 | 5695 ft | 157 kts | 264° |
| 2026-05-08 15:28 | -31.43462 | -63.88633 | 5594 ft | 154 kts | 264° |
| 2026-05-08 15:28 | -31.43466 | -63.89892 | 5489 ft | 159 kts | 264° |
| 2026-05-08 15:28 | -31.43477 | -63.91262 | 5395 ft | 177 kts | 264° |
| 2026-05-08 15:29 | -31.43485 | -63.92744 | 5277 ft | 187 kts | 265° |
| 2026-05-08 15:29 | -31.43486 | -63.94247 | 5119 ft | 181 kts | 265° |
| 2026-05-08 15:29 | -31.43484 | -63.95713 | 5007 ft | 179 kts | 265° |
| 2026-05-08 15:29 | -31.43480 | -63.97141 | 5000 ft | 172 kts | 266° |
| 2026-05-08 15:30 | -31.43478 | -63.98540 | 4960 ft | 171 kts | 265° |
| 2026-05-08 15:30 | -31.43486 | -63.99944 | 4867 ft | 173 kts | 266° |
| 2026-05-08 15:30 | -31.43488 | -64.01363 | 4767 ft | 176 kts | 266° |
| 2026-05-08 15:30 | -31.43487 | -64.02795 | 4640 ft | 174 kts | 266° |
| 2026-05-08 15:31 | -31.43485 | -64.04202 | 4529 ft | 173 kts | 266° |
| 2026-05-08 15:31 | -31.43483 | -64.05590 | 4497 ft | 167 kts | 267° |
| 2026-05-08 15:31 | -31.43486 | -64.06942 | 4489 ft | 163 kts | 267° |
| 2026-05-08 15:31 | -31.43480 | -64.08265 | 4486 ft | 162 kts | 268° |
| 2026-05-08 15:32 | -31.43487 | -64.09575 | 4459 ft | 161 kts | 267° |
| 2026-05-08 15:32 | -31.43483 | -64.10921 | 4284 ft | 169 kts | 269° |
| 2026-05-08 15:32 | -31.43475 | -64.12312 | 4110 ft | 172 kts | 268° |
| 2026-05-08 15:32 | -31.43482 | -64.13717 | 3927 ft | 173 kts | 268° |
| 2026-05-08 15:33 | -31.43407 | -64.15142 | 3705 ft | 179 kts | 281° |
| 2026-05-08 15:33 | -31.42884 | -64.16459 | 3639 ft | 174 kts | 302° |
| 2026-05-08 15:33 | -31.42029 | -64.17427 | 3602 ft | 168 kts | 325° |
| 2026-05-08 15:33 | -31.41084 | -64.18082 | 3579 ft | 157 kts | 328° |
| 2026-05-08 15:34 | -31.40115 | -64.18750 | 3517 ft | 165 kts | 327° |
| 2026-05-08 15:34 | -31.39100 | -64.19466 | 3338 ft | 171 kts | 329° |
| 2026-05-08 15:34 | -31.38084 | -64.20158 | 3087 ft | 167 kts | 329° |
| 2026-05-08 15:34 | -31.37096 | -64.20720 | 2829 ft | 154 kts | 349° |
| 2026-05-08 15:35 | -31.36097 | -64.20739 | 2706 ft | 138 kts | 3° |
| 2026-05-08 15:35 | -31.35137 | -64.20768 | 2411 ft | 137 kts | 357° |
| 2026-05-08 15:35 | -31.34225 | -64.20807 | 2134 ft | 124 kts | 5° |
| 2026-05-08 15:35 | -31.33413 | -64.20790 | 1872 ft | 114 kts | 358° |
| 2026-05-08 15:36 | -31.32705 | -64.20801 | 1658 ft | 92 kts | 3° |
| 2026-05-08 15:36 | -31.32137 | -64.20816 | 1582 ft | 70 kts | 355° |
| 2026-05-08 15:36 | -31.31797 | -64.20816 | 1589 ft | 31 kts | 1° |
| 2026-05-08 15:36 | -31.31697 | -64.20893 | 1588 ft | 17 kts | 255° |
| 2026-05-08 15:37 | -31.31718 | -64.21044 | 1582 ft | 15 kts | 283° |
| 2026-05-08 15:37 | -31.31639 | -64.21070 | 1586 ft | 12 kts | 0° |
| 2026-05-08 15:37 | -31.31572 | -64.21069 | 1590 ft | 5 kts | 14° |
| 2026-05-08 15:37 | -31.31547 | -64.21016 | 1588 ft | 5 kts | 122° |
| 2026-05-08 15:38 | -31.31547 | -64.21015 | 1588 ft | 0 kts | 123° |